createdAt,value
2019-05-07T00:01:42.302Z,5.11
2019-05-07T00:04:47.473Z,5.12
2019-05-07T00:07:52.617Z,5.18
2019-05-07T00:10:57.861Z,5.17
2019-05-07T00:14:03.235Z,5.16
2019-05-07T00:17:08.492Z,5.06
2019-05-07T00:20:13.643Z,4.94
2019-05-07T00:23:18.793Z,4.91
2019-05-07T00:26:24.028Z,4.79
2019-05-07T00:29:29.278Z,4.71
2019-05-07T00:32:34.401Z,4.63
2019-05-07T00:35:46.282Z,4.54
2019-05-07T00:38:55.935Z,4.45
2019-05-07T00:42:16.670Z,4.34
2019-05-07T00:45:28.168Z,4.30
2019-05-07T00:48:33.412Z,4.23
2019-05-07T00:51:38.579Z,4.20
2019-05-07T00:54:43.712Z,4.13
2019-05-07T00:57:48.872Z,4.01
2019-05-07T01:00:54.048Z,4.04
2019-05-07T01:03:59.242Z,4.04
2019-05-07T01:07:04.360Z,4.05
2019-05-07T01:10:12.586Z,4.09
2019-05-07T01:13:17.291Z,4.19
2019-05-07T01:16:22.605Z,4.18
2019-05-07T01:19:27.757Z,4.09
2019-05-07T01:22:34.475Z,4.07
2019-05-07T01:25:43.013Z,4.06
2019-05-07T01:29:02.887Z,4.02
2019-05-07T01:32:18.481Z,3.99
2019-05-07T01:35:42.580Z,4.04
2019-05-07T01:38:47.676Z,4.01
2019-05-07T01:41:52.931Z,3.97
2019-05-07T01:44:58.059Z,3.95
2019-05-07T01:48:04.418Z,3.91
2019-05-07T01:51:09.682Z,3.88
2019-05-07T01:54:14.844Z,3.78
2019-05-07T01:57:19.932Z,3.74
2019-05-07T02:00:25.162Z,3.88
2019-05-07T02:03:45.176Z,3.71
2019-05-07T02:07:08.087Z,3.59
2019-05-07T02:10:32.114Z,3.78
2019-05-07T02:13:37.442Z,3.71
2019-05-07T02:16:42.608Z,3.65
2019-05-07T02:19:47.708Z,3.71
2019-05-07T02:22:53.342Z,3.72
2019-05-07T02:25:58.636Z,3.69
2019-05-07T02:29:04.873Z,3.78
2019-05-07T02:32:12.938Z,3.79
2019-05-07T02:35:16.907Z,3.75
2019-05-07T02:38:29.883Z,3.75
2019-05-07T02:41:35.718Z,3.80
2019-05-07T02:44:58.424Z,3.74
2019-05-07T02:48:03.690Z,3.73
2019-05-07T02:51:18.847Z,3.61
2019-05-07T02:54:32.864Z,3.71
2019-05-07T02:57:38.277Z,3.72
2019-05-07T03:00:43.630Z,3.61
2019-05-07T03:03:48.916Z,3.53
2019-05-07T03:06:54.450Z,3.55
2019-05-07T03:10:03.204Z,3.47
2019-05-07T03:13:07.110Z,3.33
2019-05-07T03:16:13.057Z,3.39
2019-05-07T03:19:18.617Z,3.20
2019-05-07T03:22:23.799Z,3.13
2019-05-07T03:25:34.077Z,3.13
2019-05-07T03:28:58.057Z,3.00
2019-05-07T03:32:28.648Z,2.97
2019-05-07T03:35:45.916Z,2.90
2019-05-07T03:38:47.997Z,2.90
2019-05-07T03:41:53.315Z,2.91
2019-05-07T03:45:13.703Z,2.93
2019-05-07T03:48:20.199Z,2.90
2019-05-07T03:51:25.398Z,2.86
2019-05-07T03:54:33.758Z,2.89
2019-05-07T03:57:37.386Z,2.91
2019-05-07T04:00:44.191Z,3.06
2019-05-07T04:03:49.411Z,3.12
2019-05-07T04:06:54.678Z,3.19
2019-05-07T04:09:59.869Z,3.27
2019-05-07T04:13:06.540Z,3.70
2019-05-07T04:16:13.505Z,4.29
2019-05-07T04:19:18.543Z,5.12
2019-05-07T04:22:28.629Z,5.28
2019-05-07T04:25:48.467Z,6.01
2019-05-07T04:29:06.132Z,6.30
2019-05-07T04:32:14.356Z,6.61
2019-05-07T04:35:35.286Z,7.56
2019-05-07T04:38:40.482Z,8.11
2019-05-07T04:41:46.700Z,8.76
2019-05-07T04:44:53.958Z,9.02
2019-05-07T04:47:58.839Z,9.26
2019-05-07T04:51:05.709Z,10.06
2019-05-07T04:54:13.232Z,9.93
2019-05-07T04:57:28.205Z,10.85
2019-05-07T05:00:33.779Z,11.45
2019-05-07T05:03:43.430Z,10.96
2019-05-07T05:06:48.748Z,11.90
2019-05-07T05:09:53.927Z,11.47
2019-05-07T05:12:59.143Z,12.48
2019-05-07T05:16:23.717Z,11.73
2019-05-07T05:19:28.854Z,13.33
2019-05-07T05:22:53.763Z,12.59
2019-05-07T05:25:58.983Z,12.79
2019-05-07T05:29:04.318Z,13.43
2019-05-07T05:32:11.890Z,12.57
2019-05-07T05:35:17.317Z,13.84
2019-05-07T05:38:25.492Z,13.77
2019-05-07T05:41:34.152Z,14.20
2019-05-07T05:44:41.748Z,13.51
2019-05-07T05:48:01.106Z,13.55
2019-05-07T05:51:19.079Z,13.21
2019-05-07T05:54:32.029Z,13.50
2019-05-07T05:57:53.485Z,13.62
2019-05-07T06:01:17.616Z,13.86
2019-05-07T06:04:35.734Z,13.93
2019-05-07T06:07:46.618Z,14.07
2019-05-07T06:11:04.901Z,13.73
2019-05-07T06:14:14.948Z,14.54
2019-05-07T06:17:39.036Z,14.10
2019-05-07T06:20:57.299Z,14.73
2019-05-07T06:24:04.352Z,14.12
2019-05-07T06:27:09.547Z,14.06
2019-05-07T06:30:14.897Z,14.98
2019-05-07T06:33:20.064Z,14.27
2019-05-07T06:36:25.270Z,14.11
2019-05-07T06:39:36.859Z,13.99
2019-05-07T06:43:03.143Z,13.58
2019-05-07T06:46:12.662Z,14.01
2019-05-07T06:49:17.395Z,12.57
2019-05-07T06:52:22.850Z,11.55
2019-05-07T06:55:32.354Z,11.61
2019-05-07T06:58:49.257Z,11.36
2019-05-07T07:02:22.867Z,11.28
2019-05-07T07:05:45.811Z,10.41
2019-05-07T07:08:56.842Z,10.40
2019-05-07T07:12:03.866Z,10.95
2019-05-07T07:15:09.292Z,10.35
2019-05-07T07:18:14.598Z,10.60
2019-05-07T07:21:21.982Z,10.39
2019-05-07T07:24:30.284Z,10.08
2019-05-07T07:27:35.424Z,10.39
2019-05-07T07:30:48.429Z,11.08
2019-05-07T07:33:54.183Z,11.44
2019-05-07T07:37:15.186Z,11.18
2019-05-07T07:40:32.777Z,11.26
2019-05-07T07:43:37.999Z,10.43
2019-05-07T07:46:43.140Z,10.46
2019-05-07T07:49:48.268Z,10.41
2019-05-07T07:52:53.424Z,10.19
2019-05-07T07:56:16.177Z,10.13
2019-05-07T07:59:46.365Z,9.72
2019-05-07T08:02:56.169Z,9.96
2019-05-07T08:06:02.192Z,9.51
2019-05-07T08:09:09.039Z,9.74
2019-05-07T08:12:14.217Z,9.99
2019-05-07T08:15:21.835Z,10.65
2019-05-07T08:18:27.482Z,10.69
2019-05-07T08:21:33.268Z,10.63
2019-05-07T08:24:38.479Z,10.70
2019-05-07T08:27:43.634Z,11.36
2019-05-07T08:30:59.546Z,10.38
2019-05-07T08:34:14.229Z,10.43
2019-05-07T08:37:24.329Z,10.34
2019-05-07T08:40:27.708Z,10.22
2019-05-07T08:43:32.967Z,10.27
2019-05-07T08:46:57.139Z,9.67
2019-05-07T08:50:02.877Z,9.38
2019-05-07T08:53:09.279Z,9.81
2019-05-07T08:56:14.513Z,10.04
2019-05-07T08:59:19.765Z,10.16
2019-05-07T09:02:24.879Z,10.16
2019-05-07T09:05:32.194Z,10.24
2019-05-07T09:08:36.908Z,10.42
2019-05-07T09:11:42.667Z,10.83
2019-05-07T09:14:52.915Z,10.98
2019-05-07T09:17:58.343Z,11.56
2019-05-07T09:21:03.600Z,11.78
2019-05-07T09:24:09.147Z,11.99
2019-05-07T09:27:32.723Z,12.30
2019-05-07T09:30:56.612Z,11.30
2019-05-07T09:34:02.645Z,12.03
2019-05-07T09:37:09.562Z,13.19
2019-05-07T09:40:14.956Z,12.74
2019-05-07T09:43:21.892Z,12.23
2019-05-07T09:46:27.550Z,12.30
2019-05-07T09:49:32.778Z,11.93
2019-05-07T09:52:38.123Z,12.69
2019-05-07T09:55:44.944Z,12.86
2019-05-07T09:58:53.047Z,13.26
2019-05-07T10:01:58.503Z,13.07
2019-05-07T10:05:03.803Z,12.75
2019-05-07T10:08:09.226Z,13.15
2019-05-07T10:11:19.578Z,13.46
2019-05-07T10:14:24.925Z,13.68
2019-05-07T10:17:51.763Z,13.96
2019-05-07T10:20:57.039Z,13.35
2019-05-07T10:24:02.497Z,12.41
2019-05-07T10:27:07.848Z,12.26
2019-05-07T10:30:13.269Z,12.62
2019-05-07T10:33:20.027Z,12.51
2019-05-07T10:36:27.502Z,12.26
2019-05-07T10:39:32.958Z,13.48
2019-05-07T10:42:38.210Z,14.33
2019-05-07T10:46:02.386Z,14.09
2019-05-07T10:49:25.846Z,14.25
2019-05-07T10:52:31.842Z,13.79
2019-05-07T10:55:37.227Z,13.44
2019-05-07T10:58:42.378Z,13.01
2019-05-07T11:02:18.834Z,12.65
2019-05-07T11:05:23.989Z,12.59
2019-05-07T11:08:36.039Z,12.64
2019-05-07T11:11:36.265Z,13.32
2019-05-07T11:14:41.538Z,13.44
2019-05-07T11:18:08.328Z,13.97
2019-05-07T11:21:13.902Z,12.85
2019-05-07T11:24:19.019Z,12.65
2019-05-07T11:27:24.288Z,12.45
2019-05-07T11:30:29.483Z,12.81
2019-05-07T11:33:34.601Z,13.61
2019-05-07T11:36:39.739Z,13.85
2019-05-07T11:39:44.910Z,14.19
2019-05-07T11:43:02.649Z,13.59
2019-05-07T11:46:35.733Z,13.80
2019-05-07T11:49:58.629Z,13.53
2019-05-07T11:53:06.610Z,13.85
2019-05-07T11:56:11.817Z,14.22
2019-05-07T11:59:17.009Z,14.50
2019-05-07T12:02:22.722Z,13.88
2019-05-07T12:05:27.962Z,14.26
2019-05-07T12:08:42.874Z,14.52
2019-05-07T12:11:40.011Z,14.69
2019-05-07T12:14:45.196Z,13.46
2019-05-07T12:17:52.141Z,13.50
2019-05-07T12:21:06.693Z,13.46
2019-05-07T12:24:09.123Z,13.54
2019-05-07T12:27:14.305Z,13.54
2019-05-07T12:30:38.060Z,13.77
2019-05-07T12:33:53.857Z,13.96
2019-05-07T12:37:01.707Z,13.30
2019-05-07T12:40:26.477Z,13.10
2019-05-07T12:43:35.024Z,12.60
2019-05-07T12:46:42.118Z,13.14
2019-05-07T12:49:46.993Z,13.48
2019-05-07T12:53:14.193Z,13.63
2019-05-07T12:56:19.359Z,13.74
2019-05-07T12:59:24.496Z,13.60
2019-05-07T13:02:44.102Z,14.15
2019-05-07T13:05:47.815Z,14.28
2019-05-07T13:08:53.009Z,13.75
2019-05-07T13:11:58.150Z,13.09
2019-05-07T13:15:03.350Z,13.58
2019-05-07T13:18:08.714Z,13.41
2019-05-07T13:21:13.984Z,13.10
2019-05-07T13:24:19.243Z,12.65
2019-05-07T13:27:24.419Z,13.17
2019-05-07T13:30:29.618Z,12.72
2019-05-07T13:33:35.341Z,13.15
2019-05-07T13:36:43.773Z,13.86
2019-05-07T13:40:08.063Z,14.15
2019-05-07T13:43:20.244Z,14.29
2019-05-07T13:46:25.580Z,14.29
2019-05-07T13:49:32.318Z,13.81
2019-05-07T13:52:37.732Z,13.34
2019-05-07T13:55:43.027Z,13.51
2019-05-07T13:58:48.195Z,13.26
2019-05-07T14:02:06.664Z,13.81
2019-05-07T14:05:13.989Z,14.25
2019-05-07T14:08:19.740Z,14.04
2019-05-07T14:11:26.609Z,13.99
2019-05-07T14:14:34.512Z,13.82
2019-05-07T14:17:39.177Z,13.97
2019-05-07T14:20:51.230Z,13.84
2019-05-07T14:23:58.077Z,13.73
2019-05-07T14:27:03.220Z,13.00
2019-05-07T14:30:08.766Z,13.59
2019-05-07T14:33:19.242Z,13.92
2019-05-07T14:36:29.199Z,13.43
2019-05-07T14:39:34.379Z,13.81
2019-05-07T14:42:44.824Z,14.21
2019-05-07T14:45:52.230Z,14.12
2019-05-07T14:48:57.711Z,14.24
2019-05-07T14:52:02.923Z,13.43
2019-05-07T14:55:08.299Z,13.59
2019-05-07T14:58:23.013Z,13.07
2019-05-07T15:01:34.057Z,13.17
2019-05-07T15:04:41.978Z,13.51
2019-05-07T15:07:47.230Z,13.65
2019-05-07T15:10:52.603Z,13.70
2019-05-07T15:13:57.924Z,14.03
2019-05-07T15:17:12.847Z,14.00
2019-05-07T15:20:18.383Z,13.96
2019-05-07T15:26:42.408Z,14.03
2019-05-07T15:29:47.554Z,14.05
2019-05-07T15:32:52.696Z,13.85
2019-05-07T15:35:57.831Z,13.55
2019-05-07T15:39:03.000Z,13.55
2019-05-07T15:42:09.927Z,13.24
2019-05-07T15:45:15.227Z,13.17
2019-05-07T15:48:22.006Z,13.19
2019-05-07T15:51:27.540Z,12.92
2019-05-07T15:54:32.780Z,13.03
2019-05-07T15:57:38.662Z,13.20
2019-05-07T16:00:44.176Z,13.45
2019-05-07T16:03:54.366Z,13.58
2019-05-07T16:06:58.030Z,13.62
2019-05-07T16:10:03.274Z,13.85
2019-05-07T16:13:11.858Z,14.09
2019-05-07T16:16:17.219Z,13.60
2019-05-07T16:19:26.979Z,13.68
2019-05-07T16:22:36.195Z,13.65
2019-05-07T16:25:42.237Z,13.36
2019-05-07T16:28:47.844Z,13.20
2019-05-07T16:31:54.056Z,13.05
2019-05-07T16:34:59.215Z,12.67
2019-05-07T16:38:04.516Z,12.42
2019-05-07T16:41:13.341Z,12.26
2019-05-07T16:44:16.535Z,12.13
2019-05-07T16:47:22.813Z,11.96
2019-05-07T16:50:28.175Z,11.85
2019-05-07T16:53:35.286Z,11.89
2019-05-07T16:56:59.738Z,11.63
2019-05-07T17:00:08.433Z,11.91
2019-05-07T17:03:17.687Z,11.55
2019-05-07T17:06:25.238Z,11.34
2019-05-07T17:09:31.516Z,11.31
2019-05-07T17:12:38.264Z,11.14
2019-05-07T17:15:56.896Z,11.17
2019-05-07T17:19:02.651Z,11.12
2019-05-07T17:22:08.056Z,11.38
2019-05-07T17:25:33.268Z,11.27
2019-05-07T17:28:37.955Z,11.44
2019-05-07T17:31:43.160Z,11.34
2019-05-07T17:34:48.456Z,11.34
2019-05-07T17:38:08.922Z,11.30
2019-05-07T17:41:13.058Z,11.19
2019-05-07T17:44:15.085Z,11.11
2019-05-07T17:47:21.841Z,10.94
2019-05-07T17:50:33.385Z,10.72
2019-05-07T17:53:38.600Z,10.71
2019-05-07T17:56:43.914Z,10.96
2019-05-07T17:59:49.225Z,10.88
2019-05-07T18:03:32.482Z,10.74
2019-05-07T18:06:38.569Z,10.50
2019-05-07T18:09:44.864Z,10.51
2019-05-07T18:12:53.302Z,10.49
2019-05-07T18:16:02.766Z,10.35
2019-05-07T18:19:07.637Z,10.35
2019-05-07T18:22:12.907Z,10.20
2019-05-07T18:25:18.149Z,9.97
2019-05-07T18:28:27.821Z,9.79
2019-05-07T18:31:54.938Z,9.61
2019-05-07T18:35:02.203Z,9.55
2019-05-07T18:38:06.999Z,9.40
2019-05-07T18:41:12.395Z,9.26
2019-05-07T18:44:19.020Z,9.10
2019-05-07T18:47:24.150Z,8.98
2019-05-07T18:50:29.331Z,8.91
2019-05-07T18:53:34.599Z,8.72
2019-05-07T18:56:41.897Z,8.56
2019-05-07T18:59:46.757Z,8.38
2019-05-07T19:02:52.355Z,8.24
2019-05-07T19:05:58.461Z,8.22
2019-05-07T19:09:05.116Z,8.04
2019-05-07T19:12:13.216Z,8.01
2019-05-07T19:15:18.865Z,8.01
2019-05-07T19:18:24.154Z,7.92
2019-05-07T19:21:31.837Z,8.00
2019-05-07T19:24:45.238Z,7.91
2019-05-07T19:27:43.606Z,7.83
2019-05-07T19:30:52.836Z,7.77
2019-05-07T19:33:58.331Z,7.67
2019-05-07T19:37:03.462Z,7.70
2019-05-07T19:40:09.025Z,7.63
2019-05-07T19:43:14.317Z,7.58
2019-05-07T19:46:19.624Z,7.49
2019-05-07T19:49:25.876Z,7.47
2019-05-07T19:52:33.085Z,7.41
2019-05-07T19:55:55.900Z,7.37
2019-05-07T19:59:01.128Z,7.35
2019-05-07T20:02:08.253Z,7.34
2019-05-07T20:05:14.510Z,7.25
2019-05-07T20:08:21.450Z,7.18
2019-05-07T20:11:56.151Z,7.04
2019-05-07T20:15:02.789Z,6.93
2019-05-07T20:18:08.339Z,6.86
2019-05-07T20:21:13.609Z,6.75
2019-05-07T20:24:18.845Z,6.85
2019-05-07T20:27:24.116Z,6.91
2019-05-07T20:30:29.347Z,6.82
2019-05-07T20:33:34.510Z,6.79
2019-05-07T20:36:39.672Z,6.72
2019-05-07T20:39:44.815Z,6.51
2019-05-07T20:42:52.358Z,6.69
2019-05-07T20:45:56.868Z,6.56
2019-05-07T20:49:02.913Z,6.54
2019-05-07T20:52:08.576Z,6.50
2019-05-07T20:55:31.507Z,6.56
2019-05-07T20:58:36.967Z,6.39
2019-05-07T21:01:42.239Z,6.36
2019-05-07T21:04:47.461Z,6.22
2019-05-07T21:07:52.645Z,6.20
2019-05-07T21:10:57.917Z,6.22
2019-05-07T21:14:03.359Z,6.13
2019-05-07T21:17:08.634Z,6.11
2019-05-07T21:20:13.806Z,6.46
2019-05-07T21:23:18.951Z,6.40
2019-05-07T21:26:24.115Z,6.21
2019-05-07T21:29:29.250Z,5.97
2019-05-07T21:32:34.421Z,5.94
2019-05-07T21:35:39.654Z,6.08
2019-05-07T21:38:44.851Z,5.97
2019-05-07T21:41:51.944Z,5.80
2019-05-07T21:44:56.869Z,5.66
2019-05-07T21:48:02.564Z,5.68
2019-05-07T21:51:07.790Z,5.60
2019-05-07T21:54:23.717Z,5.56
2019-05-07T21:57:47.887Z,5.50
2019-05-07T22:01:08.434Z,5.43
2019-05-07T22:04:15.369Z,5.41
2019-05-07T22:07:22.573Z,5.38
2019-05-07T22:10:27.419Z,5.40
2019-05-07T22:13:33.004Z,5.41
2019-05-07T22:16:38.429Z,5.48
2019-05-07T22:19:43.562Z,5.42
2019-05-07T22:22:48.683Z,5.40
2019-05-07T22:25:53.794Z,5.54
2019-05-07T22:29:02.896Z,5.42
2019-05-07T22:32:29.584Z,5.35
2019-05-07T22:35:39.389Z,5.27
2019-05-07T22:39:05.296Z,5.32
2019-05-07T22:42:12.139Z,5.33
2019-05-07T22:45:17.703Z,5.48
2019-05-07T22:48:23.016Z,5.57
2019-05-07T22:51:28.179Z,5.49
2019-05-07T22:54:33.308Z,5.59
2019-05-07T22:57:44.328Z,5.37
2019-05-07T23:00:54.069Z,5.59
2019-05-07T23:03:59.254Z,5.46
2019-05-07T23:07:04.395Z,5.31
2019-05-07T23:10:11.929Z,5.33
2019-05-07T23:13:17.371Z,5.36
2019-05-07T23:16:23.173Z,5.41
2019-05-07T23:19:28.508Z,5.36
2019-05-07T23:22:33.661Z,5.28
2019-05-07T23:25:38.826Z,5.30
2019-05-07T23:28:43.959Z,5.43
2019-05-07T23:31:49.124Z,5.38
2019-05-07T23:34:54.314Z,5.65
2019-05-07T23:37:59.520Z,5.60
2019-05-07T23:41:22.272Z,5.65
2019-05-07T23:44:27.696Z,5.66
2019-05-07T23:47:32.792Z,5.50
2019-05-07T23:50:37.919Z,5.40
2019-05-07T23:53:44.392Z,5.42
2019-05-07T23:57:02.862Z,5.32
2019-05-07T23:59:56.508Z,5.53
